Time;durP1;ratioP1;P1;durP2;ratioP2;P2;SDS_P1;SDS_P2;PMS_P1;PMS_P2;Temp;Humidity;BMP_temperature;BMP_pressure;BME280_temperature;BME280_humidity;BME280_pressure;Samples;Min_cycle;Max_cycle;Signal;HPM_P1;HPM_P2
2021/11/14 00:00:53;;;;;;;263.37;119.70;;;;;;;0.36;77.60;94810.00;1673196;83;21206;-67
2021/11/14 00:03:20;;;;;;;275.05;119.72;;;;;;;0.40;77.53;94813.49;1685432;84;21528;-66
2021/11/14 00:05:46;;;;;;;278.52;124.70;;;;;;;0.46;77.50;94810.64;1696162;84;21081;-66
2021/11/14 00:08:14;;;;;;;308.07;132.32;;;;;;;0.55;77.38;94817.80;1687131;83;21028;-66
2021/11/14 00:10:46;;;;;;;305.92;130.05;;;;;;;0.63;77.38;94822.07;1685201;83;21049;-66
2021/11/14 00:13:13;;;;;;;285.25;127.30;;;;;;;0.71;77.22;94814.19;1693383;83;21191;-67
2021/11/14 00:15:42;;;;;;;269.75;116.53;;;;;;;0.77;76.96;94814.59;1678056;84;21104;-67
2021/11/14 00:18:09;;;;;;;288.23;127.82;;;;;;;0.74;76.78;94822.89;1681217;84;21171;-67
2021/11/14 00:20:36;;;;;;;270.40;119.37;;;;;;;0.63;76.73;94818.02;1685771;83;21131;-67
2021/11/14 00:23:04;;;;;;;275.57;123.22;;;;;;;0.57;76.85;94824.96;1696237;83;21116;-66
2021/11/14 00:25:31;;;;;;;253.10;116.03;;;;;;;0.50;76.74;94824.16;1691595;83;21012;-67
2021/11/14 00:27:57;;;;;;;282.65;121.40;;;;;;;0.44;76.74;94822.98;1656009;84;21057;-67
2021/11/14 00:30:26;;;;;;;284.30;123.95;;;;;;;0.32;76.78;94822.75;1701089;83;21084;-67
2021/11/14 00:32:52;;;;;;;246.93;106.27;;;;;;;0.24;76.96;94819.03;1689126;83;21060;-67
2021/11/14 00:35:20;;;;;;;283.55;122.17;;;;;;;0.18;77.14;94826.73;1687994;83;21135;-66
2021/11/14 00:37:47;;;;;;;299.35;127.25;;;;;;;0.12;77.50;94825.55;1695441;83;21036;-64
2021/11/14 00:40:19;;;;;;;296.57;125.95;;;;;;;0.12;77.67;94828.82;1672562;84;20996;-67
2021/11/14 00:42:45;;;;;;;297.13;121.03;;;;;;;0.16;77.89;94830.96;1684095;84;20985;-65
2021/11/14 00:45:12;;;;;;;313.45;128.62;;;;;;;0.23;77.92;94835.83;1657360;85;20958;-66
2021/11/14 00:47:39;;;;;;;266.70;117.40;;;;;;;0.22;77.88;94831.58;1674950;84;21457;-66
2021/11/14 00:50:10;;;;;;;257.90;114.20;;;;;;;0.24;77.82;94827.91;1693756;83;21648;-66
2021/11/14 00:52:36;;;;;;;282.68;121.47;;;;;;;0.25;77.99;94828.11;1685415;84;21481;-67
2021/11/14 00:55:05;;;;;;;292.87;126.07;;;;;;;0.32;77.94;94830.08;1678067;84;21044;-65
2021/11/14 00:57:31;;;;;;;295.12;125.22;;;;;;;0.40;77.98;94829.73;1694152;84;21033;-67
2021/11/14 00:59:58;;;;;;;295.65;123.00;;;;;;;0.48;77.82;94829.17;1664052;84;21157;-65
2021/11/14 01:02:24;;;;;;;274.35;122.13;;;;;;;0.55;77.58;94836.75;1698460;84;21033;-66
2021/11/14 01:04:51;;;;;;;286.80;118.13;;;;;;;0.59;77.44;94830.77;1679635;83;21005;-67
2021/11/14 01:07:18;;;;;;;289.52;123.95;;;;;;;0.60;76.92;94834.26;1686318;84;21036;-66
2021/11/14 01:09:44;;;;;;;271.20;115.20;;;;;;;0.46;76.68;94832.28;1675488;83;20984;-66
2021/11/14 01:12:12;;;;;;;282.83;116.20;;;;;;;0.32;76.79;94830.08;1700088;84;20934;-66
2021/11/14 01:14:39;;;;;;;273.27;112.40;;;;;;;0.23;76.92;94839.89;1696238;84;20997;-66
2021/11/14 01:17:06;;;;;;;283.82;118.37;;;;;;;0.18;77.15;94834.05;1688543;83;21065;-66
2021/11/14 01:19:33;;;;;;;261.52;116.95;;;;;;;0.17;77.55;94844.68;1681476;84;21021;-66
2021/11/14 01:21:59;;;;;;;265.55;111.85;;;;;;;0.22;77.73;94845.09;1675813;84;21512;-66
2021/11/14 01:24:26;;;;;;;271.62;117.13;;;;;;;0.32;77.79;94843.03;1687025;83;21173;-67
2021/11/14 01:26:53;;;;;;;279.60;117.33;;;;;;;0.37;77.31;94841.91;1695512;84;20974;-67
2021/11/14 01:29:19;;;;;;;280.62;117.10;;;;;;;0.33;77.27;94845.94;1697169;83;21005;-67
2021/11/14 01:31:46;;;;;;;259.15;113.90;;;;;;;0.32;77.18;94852.50;1684794;83;20977;-65
2021/11/14 01:34:13;;;;;;;279.15;116.42;;;;;;;0.26;77.11;94847.23;1708858;83;21036;-66
2021/11/14 01:36:39;;;;;;;260.13;106.12;;;;;;;0.19;77.02;94848.56;1704351;83;22038;-66
2021/11/14 01:39:07;;;;;;;275.48;111.97;;;;;;;0.15;77.19;94849.70;1664161;84;21455;-66
2021/11/14 01:41:35;;;;;;;252.15;112.47;;;;;;;0.07;77.19;94852.17;1709223;83;21008;-65
2021/11/14 01:44:02;;;;;;;257.15;112.30;;;;;;;-0.03;77.15;94856.92;1710700;83;21971;-67
2021/11/14 01:46:30;;;;;;;271.70;112.92;;;;;;;-0.10;77.43;94854.75;1697375;83;21056;-65
2021/11/14 01:48:58;;;;;;;264.93;114.77;;;;;;;-0.07;77.70;94851.33;1701265;83;21243;-66
2021/11/14 01:51:25;;;;;;;249.58;111.85;;;;;;;-0.03;77.72;94853.47;1703684;83;20961;-67
2021/11/14 01:53:52;;;;;;;264.80;109.15;;;;;;;0.00;77.96;94848.84;1675601;83;21167;-66
2021/11/14 01:56:19;;;;;;;246.10;109.35;;;;;;;0.09;77.89;94857.41;1701973;83;21004;-66
2021/11/14 01:58:46;;;;;;;270.73;116.08;;;;;;;0.17;77.79;94856.84;1690398;83;21437;-65
2021/11/14 02:01:28;;;;;;;234.37;103.50;;;;;;;0.24;77.78;94857.66;1669992;83;21163;-66
2021/11/14 02:03:57;;;;;;;263.55;108.90;;;;;;;0.30;77.49;94862.14;1709621;83;20981;-66
2021/11/14 02:06:25;;;;;;;222.55;97.22;;;;;;;0.25;77.03;94855.16;1709452;83;21453;-66
2021/11/14 02:08:52;;;;;;;263.35;106.17;;;;;;;0.14;76.88;94854.91;1679393;83;20977;-67
2021/11/14 02:11:19;;;;;;;243.57;110.37;;;;;;;0.01;77.05;94867.97;1697770;83;20953;-64
2021/11/14 02:13:48;;;;;;;269.07;110.45;;;;;;;-0.02;77.31;94858.48;1683963;83;21123;-65
2021/11/14 02:16:16;;;;;;;247.98;108.72;;;;;;;-0.04;77.46;94861.38;1684834;83;21142;-67
2021/11/14 02:18:42;;;;;;;238.77;110.08;;;;;;;0.00;77.85;94863.72;1699235;83;21020;-66
2021/11/14 02:21:09;;;;;;;265.10;110.30;;;;;;;0.09;77.92;94862.82;1697545;83;21521;-66
2021/11/14 02:23:36;;;;;;;274.45;115.82;;;;;;;0.18;77.68;94866.52;1687285;83;20988;-66
2021/11/14 02:26:03;;;;;;;244.60;105.52;;;;;;;0.19;77.19;94874.26;1693240;83;21137;-65
2021/11/14 02:28:31;;;;;;;280.85;116.03;;;;;;;0.17;77.11;94872.52;1676650;83;21552;-67
2021/11/14 02:30:58;;;;;;;265.92;113.72;;;;;;;0.13;77.10;94874.99;1683462;83;21120;-66
2021/11/14 02:33:26;;;;;;;268.65;114.62;;;;;;;0.08;77.05;94873.41;1631085;83;21088;-66
2021/11/14 02:35:57;;;;;;;268.70;112.17;;;;;;;0.07;76.93;94865.69;1691450;83;20965;-66
2021/11/14 02:38:24;;;;;;;248.45;104.70;;;;;;;0.02;76.83;94871.47;1694146;84;21171;-66
2021/11/14 02:40:51;;;;;;;237.82;101.80;;;;;;;-0.06;76.91;94875.85;1670057;84;21030;-66
2021/11/14 02:43:18;;;;;;;232.67;100.65;;;;;;;-0.10;77.26;94873.67;1689210;83;21095;-65
2021/11/14 02:45:45;;;;;;;222.60;95.17;;;;;;;-0.15;77.30;94876.73;1665924;83;21052;-65
2021/11/14 02:48:12;;;;;;;251.75;106.65;;;;;;;-0.21;77.40;94880.36;1676747;83;20981;-66
2021/11/14 02:50:39;;;;;;;234.10;94.07;;;;;;;-0.23;77.79;94878.61;1683830;83;22039;-66
2021/11/14 02:53:07;;;;;;;224.50;98.80;;;;;;;-0.23;77.63;94884.61;1696547;84;21022;-66
2021/11/14 02:55:34;;;;;;;220.85;96.15;;;;;;;-0.24;77.77;94881.71;1700410;84;21504;-66
2021/11/14 02:58:00;;;;;;;212.27;95.55;;;;;;;-0.17;78.30;94877.70;1688765;84;21061;-66
2021/11/14 03:00:33;;;;;;;228.42;98.52;;;;;;;-0.03;78.15;94878.56;1696659;84;21020;-66
2021/11/14 03:03:00;;;;;;;219.93;97.63;;;;;;;0.06;77.80;94878.42;1693579;83;21175;-66
2021/11/14 03:05:27;;;;;;;299.67;124.70;;;;;;;0.13;77.55;94883.89;1685817;84;21044;-67
2021/11/14 03:07:53;;;;;;;317.20;134.52;;;;;;;0.22;77.51;94878.15;1694995;83;21075;-66
2021/11/14 03:10:26;;;;;;;326.10;138.37;;;;;;;0.32;77.12;94882.27;1694250;84;21028;-66
2021/11/14 03:13:01;;;;;;;350.05;144.20;;;;;;;0.36;76.54;94880.34;1693028;83;21098;-65
2021/11/14 03:15:30;;;;;;;277.82;120.05;;;;;;;0.33;76.18;94883.81;1693588;83;21475;-64
2021/11/14 03:17:57;;;;;;;251.85;111.37;;;;;;;0.28;76.04;94882.83;1658804;84;21061;-66
2021/11/14 03:20:23;;;;;;;231.97;98.60;;;;;;;0.23;76.07;94880.46;1676040;84;21084;-64
2021/11/14 03:22:50;;;;;;;237.15;102.55;;;;;;;0.19;76.10;94887.78;1697085;84;20993;-66
2021/11/14 03:25:22;;;;;;;250.47;103.65;;;;;;;0.08;76.17;94885.58;1686491;84;21111;-64
2021/11/14 03:27:50;;;;;;;239.65;103.07;;;;;;;0.03;76.40;94885.94;1689755;84;26587;-66
2021/11/14 03:30:16;;;;;;;215.60;93.58;;;;;;;0.01;76.51;94892.31;1683508;84;21756;-66
2021/11/14 03:32:43;;;;;;;197.90;88.00;;;;;;;-0.02;76.44;94889.01;1690334;83;21016;-66
2021/11/14 03:35:10;;;;;;;188.32;81.63;;;;;;;-0.08;76.44;94893.03;1696168;83;21001;-66
2021/11/14 03:37:36;;;;;;;195.53;85.42;;;;;;;-0.17;76.64;94896.61;1691858;83;21005;-64
2021/11/14 03:40:05;;;;;;;209.75;92.90;;;;;;;-0.24;76.78;94896.58;1693134;83;21132;-65
2021/11/14 03:42:32;;;;;;;206.07;90.25;;;;;;;-0.31;77.04;94891.09;1702873;83;21437;-66
2021/11/14 03:44:59;;;;;;;232.65;99.50;;;;;;;-0.35;77.19;94900.55;1684241;83;21112;-66
2021/11/14 03:47:25;;;;;;;238.45;106.03;;;;;;;-0.36;77.47;94900.34;1680488;84;20971;-66
2021/11/14 03:49:52;;;;;;;195.70;85.80;;;;;;;-0.31;77.57;94900.55;1701786;84;20973;-67
2021/11/14 03:52:19;;;;;;;203.92;89.03;;;;;;;-0.27;77.52;94910.81;1692511;83;21965;-67
2021/11/14 03:54:45;;;;;;;224.77;92.62;;;;;;;-0.24;77.58;94911.44;1689005;84;21477;-66
2021/11/14 03:57:12;;;;;;;211.50;92.57;;;;;;;-0.21;77.63;94914.74;1683537;83;21044;-66
2021/11/14 03:59:40;;;;;;;216.78;93.37;;;;;;;-0.16;77.47;94914.39;1684334;84;21025;-66
2021/11/14 04:02:07;;;;;;;194.45;88.07;;;;;;;-0.14;77.45;94908.02;1694351;83;21052;-65
2021/11/14 04:04:36;;;;;;;204.85;85.70;;;;;;;-0.10;77.28;94910.17;1685948;83;20977;-66
2021/11/14 04:07:03;;;;;;;187.35;81.45;;;;;;;-0.11;77.02;94911.33;1674884;84;21029;-66
2021/11/14 04:09:30;;;;;;;201.25;85.95;;;;;;;-0.16;76.92;94913.03;1699050;84;21087;-66
2021/11/14 04:11:56;;;;;;;201.70;83.33;;;;;;;-0.25;76.84;94919.34;1689983;83;21096;-66
2021/11/14 04:14:23;;;;;;;184.78;79.67;;;;;;;-0.36;76.71;94915.77;1664458;83;20977;-67
2021/11/14 04:16:50;;;;;;;178.85;78.80;;;;;;;-0.47;76.64;94920.30;1695683;83;21958;-65
2021/11/14 04:19:17;;;;;;;173.17;77.50;;;;;;;-0.54;76.75;94929.14;1685309;83;21051;-66
2021/11/14 04:21:43;;;;;;;163.15;79.12;;;;;;;-0.57;76.92;94925.05;1685603;84;21040;-66
2021/11/14 04:24:10;;;;;;;162.35;71.87;;;;;;;-0.57;77.23;94919.64;1701461;84;21042;-65
2021/11/14 04:26:37;;;;;;;149.23;67.47;;;;;;;-0.52;77.35;94928.75;1683873;84;21104;-66
2021/11/14 04:29:04;;;;;;;178.05;71.67;;;;;;;-0.47;77.42;94928.41;1693913;83;21165;-67
2021/11/14 04:31:31;;;;;;;186.32;81.05;;;;;;;-0.43;77.60;94933.28;1675540;84;21084;-66
2021/11/14 04:33:57;;;;;;;178.90;77.70;;;;;;;-0.35;77.41;94934.89;1684166;83;21025;-66
2021/11/14 04:36:24;;;;;;;187.57;89.80;;;;;;;-0.30;77.36;94937.23;1677648;84;21441;-66
2021/11/14 04:38:50;;;;;;;203.07;100.60;;;;;;;-0.29;77.12;94932.83;1687836;84;21009;-66
2021/11/14 04:41:17;;;;;;;214.65;96.75;;;;;;;-0.26;76.99;94938.06;1683374;84;21105;-65
2021/11/14 04:43:43;;;;;;;199.23;94.83;;;;;;;-0.23;77.02;94948.13;1696737;83;20988;-67
2021/11/14 04:46:10;;;;;;;169.43;80.35;;;;;;;-0.20;76.75;94946.03;1679656;84;21060;-66
2021/11/14 04:48:36;;;;;;;175.75;80.67;;;;;;;-0.22;76.74;94942.33;1686851;83;21452;-66
2021/11/14 04:51:03;;;;;;;177.90;77.05;;;;;;;-0.28;76.38;94945.75;1696526;83;20969;-66
2021/11/14 04:53:30;;;;;;;180.40;77.82;;;;;;;-0.40;76.35;94948.16;1693070;83;21136;-67
2021/11/14 04:55:57;;;;;;;166.47;75.57;;;;;;;-0.50;76.56;94936.70;1667751;84;21112;-67
2021/11/14 04:58:24;;;;;;;162.20;72.25;;;;;;;-0.56;76.64;94944.92;1690859;84;21056;-67
2021/11/14 05:00:52;;;;;;;164.45;73.70;;;;;;;-0.60;76.78;94948.16;1701117;83;21029;-66
2021/11/14 05:03:19;;;;;;;166.00;73.70;;;;;;;-0.61;77.09;94940.45;1691467;83;21054;-66
2021/11/14 05:05:46;;;;;;;154.20;75.70;;;;;;;-0.60;77.09;94951.45;1693021;84;21820;-66
2021/11/14 05:08:13;;;;;;;167.13;78.70;;;;;;;-0.59;77.21;94957.06;1686438;84;21068;-66
2021/11/14 05:10:42;;;;;;;164.57;74.12;;;;;;;-0.54;77.47;94948.61;1685923;84;21048;-66
2021/11/14 05:13:09;;;;;;;164.35;73.67;;;;;;;-0.47;77.26;94949.45;1689624;83;20985;-66
2021/11/14 05:15:36;;;;;;;166.70;68.28;;;;;;;-0.40;76.92;94952.80;1682274;83;20958;-66
2021/11/14 05:18:03;;;;;;;166.53;70.28;;;;;;;-0.42;76.65;94957.22;1689074;84;21109;-66
2021/11/14 05:20:30;;;;;;;165.50;72.58;;;;;;;-0.51;76.48;94954.06;1699850;84;21001;-67
2021/11/14 05:22:57;;;;;;;172.28;68.97;;;;;;;-0.59;76.48;94956.47;1694317;84;21088;-66
2021/11/14 05:25:23;;;;;;;136.60;62.95;;;;;;;-0.66;76.36;94954.27;1677072;84;21025;-67
2021/11/14 05:27:50;;;;;;;134.85;60.05;;;;;;;-0.71;76.74;94965.41;1675860;84;21520;-67
2021/11/14 05:30:16;;;;;;;144.43;63.73;;;;;;;-0.65;77.31;94959.31;1692981;84;21851;-66
2021/11/14 05:32:43;;;;;;;158.87;65.17;;;;;;;-0.57;76.88;94958.81;1678362;84;21445;-65
2021/11/14 05:35:09;;;;;;;137.97;63.30;;;;;;;-0.63;76.47;94961.66;1684751;83;21049;-66
2021/11/14 05:37:37;;;;;;;151.72;62.20;;;;;;;-0.69;76.45;94971.22;1673138;84;21029;-67
2021/11/14 05:40:07;;;;;;;156.02;63.70;;;;;;;-0.78;76.62;94970.16;1636699;83;21085;-67
2021/11/14 05:42:34;;;;;;;171.00;73.33;;;;;;;-0.79;76.78;94973.25;1685761;84;21187;-67
2021/11/14 05:45:01;;;;;;;183.55;72.82;;;;;;;-0.79;76.71;94980.77;1672907;84;21080;-68
2021/11/14 05:47:28;;;;;;;163.68;75.20;;;;;;;-0.87;76.53;94980.50;1686032;83;20997;-68
2021/11/14 05:49:55;;;;;;;189.60;79.15;;;;;;;-0.92;76.68;94989.49;1693649;84;21078;-69
2021/11/14 05:52:21;;;;;;;184.90;85.60;;;;;;;-0.95;76.90;94990.99;1685794;83;21084;-68
2021/11/14 05:54:50;;;;;;;190.30;86.57;;;;;;;-0.89;77.02;94988.75;1676803;83;21164;-67
2021/11/14 05:57:16;;;;;;;181.22;86.65;;;;;;;-0.83;77.06;94996.72;1685244;83;20968;-66
2021/11/14 06:02:23;;;;;;;182.97;86.75;;;;;;;-0.76;77.07;95002.22;1691094;83;21426;-66
2021/11/14 06:04:55;;;;;;;168.80;78.83;;;;;;;-0.72;77.24;94999.77;1689145;83;21073;-66
2021/11/14 06:07:15;;;;;;;175.38;75.80;;;;;;;-0.62;77.27;95007.78;1688414;84;21406;-66
2021/11/14 06:09:42;;;;;;;157.55;74.85;;;;;;;-0.61;76.89;95006.05;1678572;84;21458;-66
2021/11/14 06:12:09;;;;;;;149.93;69.22;;;;;;;-0.54;76.93;95014.80;1689812;84;21020;-67
2021/11/14 06:14:37;;;;;;;181.67;87.90;;;;;;;-0.49;76.70;95012.55;1701603;84;21084;-67
2021/11/14 06:17:05;;;;;;;212.10;100.25;;;;;;;-0.43;76.54;95018.40;1697759;83;21001;-67
2021/11/14 06:19:32;;;;;;;290.87;128.82;;;;;;;-0.39;76.50;95019.97;1701084;84;21239;-67
2021/11/14 06:21:59;;;;;;;227.70;105.65;;;;;;;-0.31;76.59;95021.61;1694722;83;21690;-67
2021/11/14 06:24:25;;;;;;;234.05;103.47;;;;;;;-0.19;76.54;95028.67;1699476;84;20968;-67
2021/11/14 06:26:52;;;;;;;186.82;86.32;;;;;;;-0.07;76.58;95029.76;1660316;83;20981;-67
2021/11/14 06:29:19;;;;;;;178.78;82.40;;;;;;;0.07;76.30;95038.17;1696176;84;21081;-66
2021/11/14 06:31:45;;;;;;;147.80;75.50;;;;;;;0.15;76.13;95035.75;1679023;84;21579;-67
2021/11/14 06:34:12;;;;;;;199.20;95.45;;;;;;;0.23;76.09;95040.05;1691359;84;21069;-67
2021/11/14 06:36:38;;;;;;;222.58;104.70;;;;;;;0.30;75.73;95044.19;1660644;83;21498;-67
2021/11/14 06:39:05;;;;;;;225.60;109.32;;;;;;;0.27;75.52;95047.64;1681858;84;21075;-68
2021/11/14 06:41:31;;;;;;;302.68;177.02;;;;;;;0.26;75.55;95043.36;1659102;84;21582;-68
2021/11/14 06:43:58;;;;;;;208.15;102.55;;;;;;;0.28;75.56;95039.73;1696001;83;21107;-68
2021/11/14 06:46:24;;;;;;;209.22;100.30;;;;;;;0.28;75.52;95035.67;1648468;83;21083;-67
2021/11/14 06:48:51;;;;;;;174.23;90.77;;;;;;;0.31;75.75;95043.03;1692149;83;21500;-66
2021/11/14 06:51:18;;;;;;;221.93;116.62;;;;;;;0.36;75.83;95044.03;1700582;83;21578;-67
2021/11/14 06:53:44;;;;;;;258.43;128.25;;;;;;;0.40;75.87;95046.18;1705081;83;21432;-67
2021/11/14 06:56:12;;;;;;;227.07;116.75;;;;;;;0.41;76.04;95042.33;1705882;83;21005;-67
2021/11/14 06:58:39;;;;;;;207.40;112.80;;;;;;;0.47;76.20;95044.90;1698078;83;21050;-67
2021/11/14 07:01:05;;;;;;;237.53;120.70;;;;;;;0.54;76.24;95046.30;1691941;83;20988;-67
2021/11/14 07:03:32;;;;;;;193.57;96.90;;;;;;;0.55;76.42;95045.73;1692084;83;20969;-67
2021/11/14 07:05:58;;;;;;;169.35;88.42;;;;;;;0.60;76.78;95043.42;1643904;84;21037;-69
2021/11/14 07:08:26;;;;;;;185.82;90.77;;;;;;;0.66;76.97;95035.17;1670404;84;21178;-68
2021/11/14 07:10:53;;;;;;;140.65;75.92;;;;;;;0.78;77.29;95039.50;1682925;84;21001;-68
2021/11/14 07:13:20;;;;;;;107.52;58.38;;;;;;;0.90;77.42;95039.95;1668967;84;21556;-67
2021/11/14 07:15:46;;;;;;;146.47;78.90;;;;;;;0.96;77.34;95038.43;1688351;84;20959;-67
2021/11/14 07:18:14;;;;;;;138.03;81.82;;;;;;;1.00;77.43;95035.16;1696571;83;21057;-69
2021/11/14 07:20:41;;;;;;;147.22;85.70;;;;;;;1.05;77.53;95042.94;1694373;83;21102;-67
2021/11/14 07:23:08;;;;;;;138.35;78.65;;;;;;;1.09;77.65;95034.81;1664510;85;21206;-67
2021/11/14 07:25:35;;;;;;;132.93;70.50;;;;;;;1.17;77.99;95031.75;1676819;84;21045;-66
2021/11/14 07:28:03;;;;;;;136.65;78.37;;;;;;;1.34;78.31;95037.08;1680902;84;21021;-66
2021/11/14 07:30:30;;;;;;;142.47;81.95;;;;;;;1.59;78.34;95031.15;1682353;83;21013;-67
2021/11/14 07:32:56;;;;;;;107.85;64.95;;;;;;;1.82;78.13;95026.39;1676303;83;21908;-65
2021/11/14 07:35:24;;;;;;;109.70;66.12;;;;;;;2.05;77.89;95019.23;1675713;84;21257;-66
2021/11/14 07:37:52;;;;;;;134.10;75.55;;;;;;;2.25;77.39;95023.13;1683554;83;21433;-67
2021/11/14 07:40:21;;;;;;;148.60;79.97;;;;;;;2.32;77.15;95021.19;1687704;84;21503;-69
2021/11/14 07:42:50;;;;;;;135.03;81.63;;;;;;;2.39;77.00;95023.92;1701821;83;21029;-66
2021/11/14 07:45:18;;;;;;;107.90;62.35;;;;;;;2.47;76.91;95016.55;1693459;83;21180;-68
2021/11/14 07:47:44;;;;;;;103.53;56.80;;;;;;;2.55;76.86;95026.23;1700512;84;21085;-67
2021/11/14 07:50:11;;;;;;;87.27;50.60;;;;;;;2.60;76.68;95019.83;1699108;83;21020;-68
2021/11/14 07:52:39;;;;;;;67.32;42.78;;;;;;;2.66;76.89;95027.02;1676705;83;21068;-67
2021/11/14 07:55:08;;;;;;;64.95;37.93;;;;;;;2.76;76.80;95021.56;1680746;83;21421;-67
2021/11/14 07:57:38;;;;;;;50.28;30.45;;;;;;;2.84;76.67;95021.73;1696984;83;21157;-67
2021/11/14 08:00:07;;;;;;;53.85;31.45;;;;;;;2.95;76.68;95027.14;1677005;83;21129;-68
2021/11/14 08:02:34;;;;;;;47.98;31.30;;;;;;;3.06;76.81;95022.47;1687732;83;21520;-68
2021/11/14 08:05:01;;;;;;;58.90;37.38;;;;;;;3.16;76.78;95021.64;1699959;83;21107;-68
2021/11/14 08:07:28;;;;;;;47.17;30.77;;;;;;;3.25;76.59;95020.66;1671780;83;21016;-67
2021/11/14 08:09:55;;;;;;;53.70;32.10;;;;;;;3.40;76.31;95017.48;1683844;84;21967;-67
2021/11/14 08:12:21;;;;;;;60.88;35.25;;;;;;;3.53;76.04;95017.25;1678692;83;21021;-68
2021/11/14 08:14:49;;;;;;;58.98;36.35;;;;;;;3.74;75.68;95019.29;1658930;83;21172;-68
2021/11/14 08:17:16;;;;;;;64.90;38.40;;;;;;;3.99;75.27;95015.83;1686268;83;21425;-68
2021/11/14 08:19:44;;;;;;;75.95;46.13;;;;;;;4.18;74.85;95012.59;1698273;83;21060;-67
2021/11/14 08:22:12;;;;;;;75.70;44.15;;;;;;;4.37;74.38;95021.59;1683964;83;20970;-68
2021/11/14 08:24:39;;;;;;;71.70;42.58;;;;;;;4.53;73.96;95026.52;1693676;83;21480;-67
2021/11/14 08:27:06;;;;;;;73.57;41.68;;;;;;;4.64;73.60;95024.49;1680044;83;20969;-68
2021/11/14 08:29:33;;;;;;;71.80;41.77;;;;;;;4.72;73.07;95026.75;1687927;84;21053;-68
2021/11/14 08:31:59;;;;;;;84.52;50.08;;;;;;;4.79;72.52;95025.31;1704949;83;21072;-68
2021/11/14 08:34:26;;;;;;;81.53;47.98;;;;;;;4.83;72.12;95027.41;1691692;84;21167;-68
2021/11/14 08:36:52;;;;;;;81.45;50.60;;;;;;;4.97;71.95;95030.62;1679908;83;21073;-69
2021/11/14 08:39:19;;;;;;;73.40;45.63;;;;;;;5.19;71.69;95023.16;1687390;83;21029;-68
2021/11/14 08:41:46;;;;;;;70.42;43.25;;;;;;;5.53;70.86;95035.66;1689890;84;21088;-69
2021/11/14 08:44:12;;;;;;;65.15;39.00;;;;;;;5.79;70.16;95031.48;1690165;84;21489;-67
2021/11/14 08:46:39;;;;;;;56.42;32.65;;;;;;;6.00;69.49;95023.00;1701254;83;21801;-68
2021/11/14 08:49:06;;;;;;;61.08;34.43;;;;;;;6.20;68.81;95019.79;1701787;83;20937;-70
2021/11/14 08:51:32;;;;;;;58.65;33.85;;;;;;;6.51;68.12;95016.58;1689673;83;20985;-69
2021/11/14 08:53:59;;;;;;;53.60;32.58;;;;;;;6.87;67.12;95014.05;1697739;84;21017;-68
2021/11/14 08:56:32;;;;;;;49.10;30.75;;;;;;;7.25;66.13;95018.23;1675262;84;21432;-70
2021/11/14 08:58:59;;;;;;;54.30;34.33;;;;;;;7.69;65.02;95010.91;1674801;84;21141;-69
2021/11/14 09:01:25;;;;;;;45.08;29.40;;;;;;;8.12;63.81;95008.84;1682736;84;20977;-67
2021/11/14 09:03:51;;;;;;;48.15;29.52;;;;;;;8.40;62.57;95009.59;1687169;84;21020;-68
2021/11/14 09:06:18;;;;;;;43.48;27.22;;;;;;;8.44;61.83;95006.17;1666570;84;21115;-69
2021/11/14 09:08:46;;;;;;;46.23;28.90;;;;;;;8.63;61.00;95004.57;1693895;84;20980;-69
2021/11/14 09:11:13;;;;;;;41.02;29.35;;;;;;;8.82;60.40;95003.72;1674995;83;21214;-69
2021/11/14 09:13:41;;;;;;;41.33;28.57;;;;;;;9.14;60.01;95003.08;1674049;84;21021;-68
2021/11/14 09:16:07;;;;;;;47.40;30.15;;;;;;;9.39;58.99;95001.22;1691856;84;21092;-69
2021/11/14 09:18:36;;;;;;;58.20;34.95;;;;;;;9.58;58.53;95003.06;1674669;84;21021;-68
2021/11/14 09:21:03;;;;;;;49.40;28.75;;;;;;;9.93;58.11;95001.28;1676771;83;21021;-69
2021/11/14 09:23:30;;;;;;;42.30;25.80;;;;;;;10.45;56.68;94990.71;1686286;83;21157;-69
2021/11/14 09:25:57;;;;;;;42.08;27.80;;;;;;;10.94;55.58;94983.80;1683448;83;21444;-68
2021/11/14 09:28:24;;;;;;;46.68;26.23;;;;;;;11.22;54.62;94974.60;1700348;84;21081;-69
2021/11/14 09:30:51;;;;;;;43.95;27.67;;;;;;;11.34;53.65;94973.02;1702054;84;21080;-68
2021/11/14 09:33:21;;;;;;;42.23;27.52;;;;;;;11.32;53.06;94970.70;1649507;85;21079;-69
2021/11/14 09:35:49;;;;;;;46.25;26.73;;;;;;;11.26;53.04;94969.73;1666431;83;21911;-68
2021/11/14 09:38:15;;;;;;;43.30;26.48;;;;;;;11.33;52.71;94965.34;1685295;83;21039;-68
2021/11/14 09:40:42;;;;;;;41.37;25.70;;;;;;;11.36;52.61;94963.08;1694482;84;20945;-69
2021/11/14 09:43:09;;;;;;;41.00;27.82;;;;;;;11.33;52.50;94958.46;1702010;84;21005;-68
2021/11/14 09:45:36;;;;;;;53.87;31.40;;;;;;;11.39;52.23;94958.66;1680129;84;21009;-69
2021/11/14 09:48:05;;;;;;;44.63;29.07;;;;;;;11.52;52.07;94953.26;1678611;84;22027;-69
2021/11/14 09:50:32;;;;;;;45.63;29.75;;;;;;;11.81;51.74;94951.06;1675114;84;21029;-71
2021/11/14 09:52:59;;;;;;;46.45;28.32;;;;;;;12.14;50.91;94959.08;1689716;84;21517;-67
2021/11/14 09:55:30;;;;;;;47.08;29.12;;;;;;;12.44;50.32;94951.38;1688811;84;21438;-69
2021/11/14 09:57:54;;;;;;;49.95;26.97;;;;;;;12.67;49.75;94941.19;1682308;84;21053;-70
2021/11/14 10:00:25;;;;;;;44.93;28.15;;;;;;;12.92;49.09;94943.73;1691239;83;21768;-68
2021/11/14 10:02:50;;;;;;;51.90;31.80;;;;;;;13.09;48.50;94949.91;1657353;84;21116;-68
2021/11/14 10:05:17;;;;;;;54.63;32.33;;;;;;;13.14;48.76;94940.27;1704605;83;20982;-69
2021/11/14 10:08:05;;;;;;;64.03;37.50;;;;;;;13.34;49.04;94941.37;1699357;83;21084;-67
2021/11/14 10:10:36;;;;;;;59.40;37.13;;;;;;;13.63;48.29;94935.38;1680589;83;21046;-69
2021/11/14 10:13:16;;;;;;;52.62;34.08;;;;;;;14.03;47.56;94933.91;1689934;84;21206;-68
2021/11/14 10:15:45;;;;;;;59.50;36.08;;;;;;;14.58;46.09;94930.55;1688704;84;21021;-69
2021/11/14 10:18:12;;;;;;;51.63;35.43;;;;;;;15.03;45.21;94919.22;1663229;83;21009;-69
2021/11/14 10:20:39;;;;;;;51.10;34.60;;;;;;;15.28;45.44;94918.77;1678423;84;20986;-70
2021/11/14 10:23:15;;;;;;;48.78;32.42;;;;;;;15.43;43.94;94922.38;1700707;84;21044;-69
2021/11/14 10:25:44;;;;;;;62.85;37.42;;;;;;;15.65;43.22;94931.73;1641984;84;21084;-69
2021/11/14 10:28:11;;;;;;;60.05;36.20;;;;;;;15.84;43.13;94917.85;1694606;84;21150;-68
2021/11/14 10:30:41;;;;;;;65.32;35.85;;;;;;;16.14;42.37;94918.80;1697344;84;21065;-69
2021/11/14 10:33:12;;;;;;;36.30;26.12;;;;;;;16.50;42.07;94922.57;1697225;83;21528;-68
2021/11/14 10:35:40;;;;;;;41.63;24.98;;;;;;;16.85;41.04;94917.81;1688278;83;21099;-68
2021/11/14 10:38:13;;;;;;;35.60;23.47;;;;;;;17.35;40.66;94912.35;1690921;84;21139;-68
2021/11/14 10:40:45;;;;;;;37.45;25.23;;;;;;;17.93;39.32;94918.97;1699163;84;21552;-70
2021/11/14 10:43:11;;;;;;;37.08;24.43;;;;;;;18.33;37.91;94914.88;1675959;84;21561;-68
2021/11/14 10:45:40;;;;;;;35.33;24.07;;;;;;;18.35;38.25;94911.58;1674642;83;21151;-68
2021/11/14 10:48:09;;;;;;;36.95;22.85;;;;;;;18.32;38.04;94908.39;1680856;84;21512;-69
2021/11/14 10:50:40;;;;;;;31.20;18.57;;;;;;;18.21;38.34;94912.42;1657045;83;21286;-69
2021/11/14 10:53:10;;;;;;;26.45;18.00;;;;;;;18.13;38.25;94915.52;1687223;84;20989;-70
2021/11/14 10:55:42;;;;;;;25.80;16.67;;;;;;;18.25;37.86;94913.73;1700574;83;20957;-69
2021/11/14 10:58:09;;;;;;;24.92;13.50;;;;;;;18.47;37.78;94908.39;1675313;84;21041;-71
2021/11/14 11:00:37;;;;;;;17.20;11.08;;;;;;;18.58;37.17;94901.52;1698248;83;21441;-69
2021/11/14 11:03:03;;;;;;;15.43;11.38;;;;;;;18.74;36.72;94909.87;1688763;84;21142;-69
2021/11/14 11:05:30;;;;;;;18.57;11.97;;;;;;;19.06;35.89;94903.77;1689065;84;21110;-71
2021/11/14 11:08:07;;;;;;;26.30;13.03;;;;;;;19.15;35.51;94904.95;1695070;84;21422;-71
2021/11/14 11:10:45;;;;;;;13.85;10.25;;;;;;;19.04;35.77;94902.09;1691352;83;21029;-70
2021/11/14 11:13:16;;;;;;;14.53;9.48;;;;;;;18.85;35.04;94907.92;1683940;83;21189;-69
2021/11/14 11:15:49;;;;;;;14.15;9.85;;;;;;;18.80;35.28;94905.86;1687540;84;21234;-69
2021/11/14 11:18:19;;;;;;;12.35;8.98;;;;;;;18.99;35.17;94907.65;1689179;84;21025;-68